createdAt,value
2018-08-31T00:00:44.246Z,12.57
2018-08-31T00:03:14.296Z,14.17
2018-08-31T00:05:55.775Z,7.50
2018-08-31T00:09:41.372Z,6.47
2018-08-31T00:12:44.220Z,10.03
2018-08-31T00:15:12.872Z,10.57
2018-08-31T00:17:42.760Z,11.63
2018-08-31T00:20:12.588Z,9.60
2018-08-31T00:22:41.266Z,13.17
2018-08-31T00:26:24.368Z,12.43
2018-08-31T00:29:05.410Z,10.47
2018-08-31T00:33:53.084Z,9.43
2018-08-31T00:37:34.750Z,9.97
2018-08-31T00:40:13.727Z,7.93
2018-08-31T00:44:58.788Z,10.37
2018-08-31T00:47:27.478Z,10.17
2018-08-31T00:49:56.316Z,12.20
2018-08-31T00:52:25.259Z,9.80
2018-08-31T00:54:53.945Z,9.13
2018-08-31T00:57:22.616Z,7.97
2018-08-31T00:59:51.278Z,6.77
2018-08-31T01:02:19.947Z,9.50
2018-08-31T01:04:48.601Z,10.87
2018-08-31T01:07:17.273Z,11.97
2018-08-31T01:09:45.941Z,5.00
2018-08-31T01:12:14.593Z,8.90
2018-08-31T01:14:43.253Z,10.33
2018-08-31T01:17:11.951Z,9.80
2018-08-31T01:19:40.605Z,7.03
2018-08-31T01:22:09.259Z,10.73
2018-08-31T01:24:37.995Z,7.43
2018-08-31T01:27:06.654Z,7.20
2018-08-31T01:29:35.355Z,7.80
2018-08-31T01:32:04.012Z,9.30
2018-08-31T01:34:32.696Z,5.27
2018-08-31T01:37:01.347Z,14.13
2018-08-31T01:39:30.012Z,4.83
2018-08-31T01:41:58.689Z,10.73
2018-08-31T01:44:27.351Z,8.60
2018-08-31T01:46:55.984Z,8.93
2018-08-31T01:49:24.825Z,9.43
2018-08-31T01:51:54.215Z,9.23
2018-08-31T01:54:22.876Z,6.73
2018-08-31T01:56:51.741Z,7.73
2018-08-31T01:59:20.412Z,6.37
2018-08-31T02:01:49.290Z,11.60
2018-08-31T02:04:18.009Z,12.53
2018-08-31T02:06:46.856Z,8.70
2018-08-31T02:09:17.524Z,8.63
2018-08-31T02:11:46.772Z,12.90
2018-08-31T02:14:15.480Z,5.50
2018-08-31T02:16:44.144Z,2.77
2018-08-31T02:19:12.794Z,11.50
2018-08-31T02:21:41.460Z,12.13
2018-08-31T02:24:10.105Z,9.40
2018-08-31T02:26:38.774Z,13.90
2018-08-31T02:29:07.441Z,9.73
2018-08-31T02:31:36.089Z,9.50
2018-08-31T02:34:04.747Z,12.83
2018-08-31T02:36:33.445Z,9.93
2018-08-31T02:39:02.125Z,11.17
2018-08-31T02:41:30.781Z,14.63
2018-08-31T02:43:59.453Z,9.03
2018-08-31T02:46:28.127Z,4.73
2018-08-31T02:48:56.787Z,7.53
2018-08-31T02:51:25.453Z,10.40
2018-08-31T02:53:54.115Z,8.23
2018-08-31T02:56:22.768Z,13.50
2018-08-31T02:58:51.445Z,9.77
2018-08-31T03:01:20.102Z,5.83
2018-08-31T03:03:48.788Z,8.97
2018-08-31T03:06:17.460Z,8.40
2018-08-31T03:08:46.119Z,6.53
2018-08-31T03:11:14.782Z,10.53
2018-08-31T03:13:43.480Z,6.07
2018-08-31T03:16:12.128Z,8.17
2018-08-31T03:18:40.801Z,6.83
2018-08-31T03:21:09.470Z,12.10
2018-08-31T03:23:38.125Z,6.43
2018-08-31T03:26:06.795Z,8.47
2018-08-31T03:28:35.473Z,7.80
2018-08-31T03:31:04.145Z,10.47
2018-08-31T03:33:32.808Z,7.67
2018-08-31T03:36:01.459Z,6.57
2018-08-31T03:38:30.149Z,10.50
2018-08-31T03:40:58.809Z,7.20
2018-08-31T03:43:27.460Z,5.10
2018-08-31T03:45:56.127Z,8.80
2018-08-31T03:48:24.788Z,10.67
2018-08-31T03:50:53.440Z,7.63
2018-08-31T03:53:22.086Z,6.03
2018-08-31T03:55:50.760Z,11.17
2018-08-31T03:58:19.433Z,9.93
2018-08-31T04:00:48.106Z,5.23
2018-08-31T04:03:16.799Z,9.77
2018-08-31T04:05:45.470Z,6.90
2018-08-31T04:08:14.116Z,6.00
2018-08-31T04:10:42.804Z,6.37
2018-08-31T04:13:18.346Z,7.20
2018-08-31T04:15:47.036Z,4.83
2018-08-31T04:18:15.710Z,12.33
2018-08-31T04:20:44.366Z,9.30
2018-08-31T04:23:13.064Z,11.27
2018-08-31T04:25:41.776Z,7.60
2018-08-31T04:28:10.448Z,9.30
2018-08-31T04:30:39.094Z,10.50
2018-08-31T04:33:07.751Z,11.40
2018-08-31T04:35:36.420Z,11.37
2018-08-31T04:38:05.239Z,8.57
2018-08-31T04:40:34.012Z,9.33
2018-08-31T04:43:02.734Z,9.20
2018-08-31T04:45:31.367Z,7.40
2018-08-31T04:48:00.048Z,10.73
2018-08-31T04:50:28.791Z,5.57
2018-08-31T04:52:57.419Z,9.47
2018-08-31T04:55:26.125Z,11.03
2018-08-31T04:57:54.865Z,8.07
2018-08-31T05:00:23.532Z,9.50
2018-08-31T05:02:52.179Z,5.70
2018-08-31T05:05:20.892Z,8.70
2018-08-31T05:07:49.540Z,8.00
2018-08-31T05:10:18.228Z,7.10
2018-08-31T05:12:46.905Z,10.33
2018-08-31T05:15:15.587Z,6.60
2018-08-31T05:17:44.299Z,9.67
2018-08-31T05:20:12.991Z,12.17
2018-08-31T05:22:41.682Z,9.50
2018-08-31T05:25:10.334Z,14.30
2018-08-31T05:27:39.033Z,25.03
2018-08-31T05:30:07.899Z,11.93
2018-08-31T05:32:36.572Z,9.57
2018-08-31T05:35:05.276Z,8.27
2018-08-31T05:37:33.906Z,10.50
2018-08-31T05:40:02.580Z,8.33
2018-08-31T05:42:31.434Z,8.37
2018-08-31T05:45:00.100Z,8.23
2018-08-31T05:47:28.748Z,5.53
2018-08-31T05:49:57.412Z,12.40
2018-08-31T05:52:26.103Z,9.63
2018-08-31T05:54:54.844Z,7.50
2018-08-31T05:57:23.478Z,13.57
2018-08-31T05:59:52.192Z,13.77
2018-08-31T06:02:20.921Z,12.17
2018-08-31T06:04:49.557Z,9.20
2018-08-31T06:07:18.216Z,15.60
2018-08-31T06:09:47.007Z,6.83
2018-08-31T06:12:15.684Z,12.97
2018-08-31T06:14:44.401Z,9.70
2018-08-31T06:17:13.078Z,7.33
2018-08-31T06:19:41.742Z,7.77
2018-08-31T06:22:10.412Z,5.63
2018-08-31T06:24:39.289Z,7.87
2018-08-31T06:27:08.005Z,10.00
2018-08-31T06:29:36.614Z,13.50
2018-08-31T06:32:05.401Z,6.83
2018-08-31T06:34:34.094Z,10.10
2018-08-31T06:37:02.790Z,9.17
2018-08-31T06:39:31.421Z,13.50
2018-08-31T06:42:00.094Z,12.30
2018-08-31T06:44:28.865Z,9.27
2018-08-31T06:46:57.537Z,8.67
2018-08-31T06:49:26.326Z,12.13
2018-08-31T06:51:54.973Z,11.37
2018-08-31T06:54:23.787Z,9.73
2018-08-31T06:56:52.499Z,11.67
2018-08-31T06:59:21.184Z,10.97
2018-08-31T07:01:49.813Z,7.30
2018-08-31T07:04:18.487Z,6.93
2018-08-31T07:06:47.213Z,6.80
2018-08-31T07:09:15.897Z,13.57
2018-08-31T07:11:44.583Z,15.97
2018-08-31T07:14:13.249Z,9.00
2018-08-31T07:16:41.923Z,8.97
2018-08-31T07:19:10.676Z,15.07
2018-08-31T07:21:39.357Z,14.40
2018-08-31T07:24:08.024Z,8.80
2018-08-31T07:26:36.696Z,8.57
2018-08-31T07:29:05.387Z,10.37
2018-08-31T07:31:34.165Z,11.37
2018-08-31T07:34:02.953Z,10.80
2018-08-31T07:36:31.637Z,12.67
2018-08-31T07:39:00.318Z,13.07
2018-08-31T07:41:28.971Z,16.63
2018-08-31T07:43:57.696Z,13.23
2018-08-31T07:46:26.406Z,8.23
2018-08-31T07:48:55.205Z,15.13
2018-08-31T07:51:23.914Z,6.83
2018-08-31T07:53:52.636Z,13.73
2018-08-31T07:56:21.230Z,9.73
2018-08-31T07:58:49.982Z,9.93
2018-08-31T08:01:18.633Z,10.00
2018-08-31T08:03:47.317Z,12.47
2018-08-31T08:06:16.040Z,8.80
2018-08-31T08:08:44.773Z,8.97
2018-08-31T08:11:13.456Z,8.10
2018-08-31T08:13:42.377Z,11.63
2018-08-31T08:16:11.139Z,9.30
2018-08-31T08:18:39.786Z,12.83
2018-08-31T08:21:08.475Z,11.80
2018-08-31T08:23:37.157Z,10.00
2018-08-31T08:26:05.899Z,10.47
2018-08-31T08:28:34.586Z,15.43
2018-08-31T08:31:03.257Z,10.67
2018-08-31T08:33:31.958Z,15.33
2018-08-31T08:36:00.636Z,12.43
2018-08-31T08:38:29.334Z,10.00
2018-08-31T08:40:58.025Z,8.77
2018-08-31T08:43:27.069Z,13.43
2018-08-31T08:45:55.767Z,10.37
2018-08-31T08:48:24.616Z,12.33
2018-08-31T08:50:53.284Z,8.13
2018-08-31T08:53:22.076Z,10.20
2018-08-31T08:55:51.012Z,8.10
2018-08-31T08:58:19.726Z,5.43
2018-08-31T09:00:48.349Z,9.70
2018-08-31T09:03:17.004Z,7.93
2018-08-31T09:05:45.697Z,9.07
2018-08-31T09:08:14.337Z,11.77
2018-08-31T09:10:42.987Z,6.03
2018-08-31T09:13:11.665Z,8.60
2018-08-31T09:15:40.330Z,6.50
2018-08-31T09:18:09.080Z,11.00
2018-08-31T09:20:37.734Z,8.20
2018-08-31T09:23:06.392Z,10.17
2018-08-31T09:25:35.178Z,10.33
2018-08-31T09:28:03.863Z,6.47
2018-08-31T09:30:38.088Z,9.33
2018-08-31T09:33:06.755Z,13.87
2018-08-31T09:35:35.441Z,9.47
2018-08-31T09:38:04.118Z,11.63
2018-08-31T09:40:32.798Z,6.67
2018-08-31T09:43:01.448Z,6.50
2018-08-31T09:45:30.122Z,9.30
2018-08-31T09:47:58.882Z,9.00
2018-08-31T09:50:27.672Z,5.03
2018-08-31T09:52:56.351Z,7.17
2018-08-31T09:55:25.020Z,10.13
2018-08-31T09:57:53.701Z,9.70
2018-08-31T10:00:28.038Z,8.70
2018-08-31T10:03:02.151Z,9.67
2018-08-31T10:05:30.824Z,6.57
2018-08-31T10:07:59.496Z,10.80
2018-08-31T10:10:28.180Z,11.73
2018-08-31T10:12:56.860Z,7.73
2018-08-31T10:15:25.536Z,5.40
2018-08-31T10:17:54.196Z,7.70
2018-08-31T10:20:22.952Z,6.50
2018-08-31T10:22:51.613Z,9.83
2018-08-31T10:25:20.267Z,6.13
2018-08-31T10:27:48.944Z,7.97
2018-08-31T10:30:17.756Z,11.03
2018-08-31T10:32:46.364Z,9.13
2018-08-31T10:35:15.128Z,5.70
2018-08-31T10:37:43.840Z,9.30
2018-08-31T10:40:12.578Z,9.53
2018-08-31T10:42:41.227Z,7.47
2018-08-31T10:45:10.311Z,5.17
2018-08-31T10:47:38.965Z,12.67
2018-08-31T10:50:08.304Z,8.53
2018-08-31T10:52:36.963Z,9.63
2018-08-31T10:55:05.882Z,8.90
2018-08-31T10:57:34.847Z,6.97
2018-08-31T11:00:03.735Z,9.73
2018-08-31T11:02:32.377Z,7.63
2018-08-31T11:05:01.136Z,7.57
2018-08-31T11:07:29.861Z,8.23
2018-08-31T11:09:58.580Z,6.83
2018-08-31T11:12:27.369Z,5.23
2018-08-31T11:14:56.027Z,9.10
2018-08-31T11:17:24.727Z,6.80
2018-08-31T11:19:53.443Z,9.10
2018-08-31T11:22:22.178Z,4.40
2018-08-31T11:24:50.840Z,9.43
2018-08-31T11:27:19.525Z,9.70
2018-08-31T11:29:48.507Z,7.00
2018-08-31T11:32:17.263Z,7.47
2018-08-31T11:34:45.946Z,7.03
2018-08-31T11:37:14.769Z,5.77
2018-08-31T11:39:43.460Z,3.83
2018-08-31T11:42:12.160Z,12.10
2018-08-31T11:44:40.852Z,8.70
2018-08-31T11:47:09.612Z,5.97
2018-08-31T11:49:38.400Z,6.37
2018-08-31T11:52:07.160Z,6.27
2018-08-31T11:54:35.821Z,5.10
2018-08-31T11:57:04.520Z,12.00
2018-08-31T11:59:33.173Z,6.03
2018-08-31T12:02:01.859Z,4.90
2018-08-31T12:04:30.576Z,7.37
2018-08-31T12:06:59.220Z,13.97
2018-08-31T12:09:27.900Z,13.67
2018-08-31T12:11:56.582Z,4.27
2018-08-31T12:14:25.249Z,6.57
2018-08-31T12:16:53.965Z,9.13
2018-08-31T12:19:22.630Z,7.20
2018-08-31T12:21:51.273Z,6.80
2018-08-31T12:24:20.103Z,8.87
2018-08-31T12:26:48.734Z,5.33
2018-08-31T12:29:17.412Z,3.73
2018-08-31T12:31:46.058Z,6.80
2018-08-31T12:34:14.741Z,3.97
2018-08-31T12:36:43.428Z,5.33
2018-08-31T12:39:12.323Z,5.13
2018-08-31T12:41:41.104Z,9.40
2018-08-31T12:44:09.799Z,9.57
2018-08-31T12:46:38.461Z,5.30
2018-08-31T12:49:07.141Z,4.17
2018-08-31T12:51:35.813Z,5.93
2018-08-31T12:54:04.471Z,10.60
2018-08-31T12:56:33.207Z,6.70
2018-08-31T12:59:01.894Z,6.23
2018-08-31T13:01:30.569Z,7.90
2018-08-31T13:03:59.268Z,8.10
2018-08-31T13:06:27.937Z,6.47
2018-08-31T13:08:56.646Z,12.43
2018-08-31T13:11:32.204Z,6.50
2018-08-31T13:14:00.933Z,7.27
2018-08-31T13:16:29.600Z,4.80
2018-08-31T13:18:58.270Z,6.07
2018-08-31T13:21:26.981Z,5.80
2018-08-31T13:23:55.662Z,11.23
2018-08-31T13:26:24.327Z,7.43
2018-08-31T13:28:52.992Z,6.23
2018-08-31T13:31:21.697Z,5.50
2018-08-31T13:33:50.385Z,10.70
2018-08-31T13:36:19.063Z,8.17
2018-08-31T13:38:47.764Z,14.97
2018-08-31T13:41:16.470Z,5.00
2018-08-31T13:43:45.148Z,6.80
2018-08-31T13:46:13.792Z,8.27
2018-08-31T13:48:42.692Z,6.90
2018-08-31T13:51:11.474Z,5.47
2018-08-31T13:53:40.164Z,3.90
2018-08-31T13:56:08.826Z,9.97
2018-08-31T13:58:37.532Z,8.30
2018-08-31T14:01:06.231Z,4.43
2018-08-31T14:03:34.936Z,14.13
2018-08-31T14:06:03.690Z,6.30
2018-08-31T14:08:32.318Z,6.20
2018-08-31T14:11:01.930Z,5.53
2018-08-31T14:13:30.587Z,6.33
2018-08-31T14:15:59.238Z,5.37
2018-08-31T14:18:27.936Z,4.93
2018-08-31T14:20:56.619Z,5.30
2018-08-31T14:23:25.257Z,6.83
2018-08-31T14:25:53.973Z,7.13
2018-08-31T14:28:22.652Z,7.37
2018-08-31T14:30:51.381Z,6.80
2018-08-31T14:33:20.033Z,5.57
2018-08-31T14:35:48.735Z,8.63
2018-08-31T14:38:17.525Z,6.07
2018-08-31T14:40:46.244Z,6.20
2018-08-31T14:43:14.869Z,6.03
2018-08-31T14:45:43.553Z,6.07
2018-08-31T14:48:12.204Z,8.33
2018-08-31T14:50:40.876Z,7.27
2018-08-31T14:53:09.585Z,7.80
2018-08-31T14:55:38.288Z,9.87
2018-08-31T14:58:06.980Z,5.00
2018-08-31T15:00:35.735Z,10.40
2018-08-31T15:03:04.420Z,6.13
2018-08-31T15:05:33.136Z,10.03
2018-08-31T15:08:01.865Z,9.70
2018-08-31T15:10:30.542Z,7.23
2018-08-31T15:12:59.224Z,5.30
2018-08-31T15:15:27.897Z,6.80
2018-08-31T15:17:56.653Z,8.07
2018-08-31T15:20:25.306Z,5.53
2018-08-31T15:22:54.006Z,5.93
2018-08-31T15:25:22.695Z,6.40
2018-08-31T15:27:51.466Z,8.67
2018-08-31T15:30:20.140Z,4.60
2018-08-31T15:32:49.018Z,5.83
2018-08-31T15:35:17.706Z,8.10
2018-08-31T15:37:46.364Z,5.83
2018-08-31T15:40:15.071Z,6.20
2018-08-31T15:42:43.807Z,6.97
2018-08-31T15:45:12.498Z,4.97
2018-08-31T15:47:41.214Z,6.40
2018-08-31T15:50:10.045Z,6.70
2018-08-31T15:52:38.893Z,6.97
2018-08-31T15:55:07.808Z,5.07
2018-08-31T15:57:36.473Z,5.10
2018-08-31T16:00:05.598Z,4.47
2018-08-31T16:02:34.315Z,6.10
2018-08-31T16:05:02.929Z,4.90
2018-08-31T16:07:31.577Z,5.27
2018-08-31T16:10:00.428Z,6.50
2018-08-31T16:12:29.144Z,4.67
2018-08-31T16:14:57.841Z,4.87
2018-08-31T16:17:26.599Z,5.73
2018-08-31T16:19:55.249Z,5.80
2018-08-31T16:22:23.915Z,4.70
2018-08-31T16:24:52.621Z,5.23
2018-08-31T16:27:21.294Z,7.23
2018-08-31T16:29:50.241Z,6.13
2018-08-31T16:32:19.113Z,4.77
2018-08-31T16:34:47.801Z,5.63
2018-08-31T16:37:16.475Z,4.47
2018-08-31T16:39:45.154Z,5.13
2018-08-31T16:42:13.835Z,9.17
2018-08-31T16:44:42.550Z,4.97
2018-08-31T16:47:11.213Z,5.27
2018-08-31T16:49:39.852Z,4.53
2018-08-31T16:52:08.534Z,6.00
2018-08-31T16:54:37.204Z,6.43
2018-08-31T16:57:06.192Z,4.00
2018-08-31T16:59:35.236Z,6.67
2018-08-31T17:02:04.062Z,6.60
2018-08-31T17:04:32.756Z,5.00
2018-08-31T17:07:01.472Z,8.93
2018-08-31T17:09:30.128Z,7.27
2018-08-31T17:11:58.828Z,5.30
2018-08-31T17:14:27.538Z,9.17
2018-08-31T17:16:56.234Z,5.63
2018-08-31T17:19:24.834Z,7.63
2018-08-31T17:21:53.530Z,7.23
2018-08-31T17:24:22.212Z,5.17
2018-08-31T17:27:54.300Z,6.53
2018-08-31T17:30:23.808Z,6.70
2018-08-31T17:32:58.030Z,4.90
2018-08-31T17:35:32.240Z,7.50
2018-08-31T17:38:01.628Z,7.50
2018-08-31T17:40:30.574Z,11.63
2018-08-31T17:42:59.859Z,6.70
2018-08-31T17:45:28.632Z,7.47
2018-08-31T17:47:57.290Z,10.83
2018-08-31T17:50:25.960Z,5.80
2018-08-31T17:52:54.621Z,8.33
2018-08-31T17:55:23.278Z,5.40
2018-08-31T17:57:51.987Z,6.83
2018-08-31T18:00:20.598Z,6.37
2018-08-31T18:02:49.350Z,6.67
2018-08-31T18:05:17.989Z,5.83
2018-08-31T18:07:46.660Z,7.63
2018-08-31T18:10:15.300Z,7.20
2018-08-31T18:12:43.992Z,11.37
2018-08-31T18:15:12.668Z,8.57
2018-08-31T18:17:41.323Z,6.80
2018-08-31T18:20:10.045Z,7.97
2018-08-31T18:22:38.692Z,7.00
2018-08-31T18:25:07.362Z,5.93
2018-08-31T18:27:36.011Z,9.00
2018-08-31T18:30:05.014Z,9.97
2018-08-31T18:32:33.662Z,10.87
2018-08-31T18:35:02.334Z,13.37
2018-08-31T18:37:31.020Z,17.17
2018-08-31T18:39:59.801Z,17.77
2018-08-31T18:42:28.787Z,18.03
2018-08-31T18:44:57.469Z,13.70
2018-08-31T18:47:26.156Z,9.87
2018-08-31T18:49:54.836Z,9.87
2018-08-31T18:52:23.516Z,6.07
2018-08-31T18:54:52.595Z,11.27
2018-08-31T18:57:21.273Z,23.97
2018-08-31T18:59:49.993Z,17.83
2018-08-31T19:02:18.649Z,11.93
2018-08-31T19:04:47.308Z,13.20
2018-08-31T19:07:15.962Z,9.57
2018-08-31T19:09:44.651Z,9.30
2018-08-31T19:12:13.294Z,10.17
2018-08-31T19:14:41.982Z,6.57
2018-08-31T19:17:10.652Z,11.30
2018-08-31T19:19:39.323Z,7.70
2018-08-31T19:22:08.072Z,5.70
2018-08-31T19:24:36.784Z,7.30
2018-08-31T19:27:05.620Z,6.90
2018-08-31T19:29:34.294Z,7.87
2018-08-31T19:32:03.400Z,6.77
2018-08-31T19:34:32.092Z,9.67
2018-08-31T19:37:00.774Z,6.70
2018-08-31T19:39:29.444Z,8.27
2018-08-31T19:41:58.145Z,6.07
2018-08-31T19:44:26.796Z,7.80
2018-08-31T19:46:55.471Z,13.20
2018-08-31T19:49:24.172Z,9.17
2018-08-31T19:51:52.850Z,6.73
2018-08-31T19:54:21.537Z,8.23
2018-08-31T19:56:50.881Z,8.77
2018-08-31T19:59:19.549Z,9.07
2018-08-31T20:01:48.257Z,10.33
2018-08-31T20:04:16.989Z,7.77
2018-08-31T20:06:45.651Z,7.37
2018-08-31T20:09:14.313Z,10.87
2018-08-31T20:11:43.039Z,8.23
2018-08-31T20:14:11.723Z,8.37
2018-08-31T20:16:40.417Z,11.67
2018-08-31T20:19:09.079Z,6.80
2018-08-31T20:21:37.775Z,9.07
2018-08-31T20:24:06.465Z,6.77
2018-08-31T20:26:35.146Z,7.50
2018-08-31T20:29:03.833Z,8.50
2018-08-31T20:31:32.497Z,8.33
2018-08-31T20:34:01.157Z,7.83
2018-08-31T20:36:29.823Z,11.80
2018-08-31T20:38:58.479Z,6.77
2018-08-31T20:41:27.141Z,10.47
2018-08-31T20:43:55.829Z,12.17
2018-08-31T20:46:24.496Z,12.77
2018-08-31T20:48:53.149Z,8.77
2018-08-31T20:51:21.795Z,12.23
2018-08-31T20:53:50.495Z,8.87
2018-08-31T20:56:19.173Z,8.90
2018-08-31T20:58:47.826Z,8.70
2018-08-31T21:01:16.531Z,9.97
2018-08-31T21:03:45.262Z,9.43
2018-08-31T21:06:14.200Z,9.10
2018-08-31T21:08:42.932Z,11.73
2018-08-31T21:11:11.865Z,13.07
2018-08-31T21:13:41.089Z,8.57
2018-08-31T21:16:09.748Z,7.87
2018-08-31T21:18:38.414Z,10.60
2018-08-31T21:21:07.058Z,8.97
2018-08-31T21:23:35.727Z,16.87
2018-08-31T21:26:04.469Z,14.80
2018-08-31T21:28:33.142Z,19.43
2018-08-31T21:31:01.788Z,17.20
2018-08-31T21:33:30.568Z,19.93
2018-08-31T21:35:59.218Z,18.37
2018-08-31T21:38:27.888Z,20.67
2018-08-31T21:40:56.583Z,25.73
2018-08-31T21:43:25.280Z,29.77
2018-08-31T21:45:53.993Z,31.83
2018-08-31T21:48:22.794Z,22.73
2018-08-31T21:50:51.568Z,26.63
2018-08-31T21:53:20.254Z,23.93
2018-08-31T21:55:48.918Z,18.07
2018-08-31T21:58:17.596Z,19.10
2018-08-31T22:00:46.436Z,18.93
2018-08-31T22:03:15.225Z,20.13
2018-08-31T22:05:47.364Z,19.67
2018-08-31T22:08:17.184Z,17.03
2018-08-31T22:10:45.836Z,16.47
2018-08-31T22:13:14.564Z,15.57
2018-08-31T22:15:43.252Z,15.03
2018-08-31T22:18:11.928Z,13.30
2018-08-31T22:20:40.624Z,18.37
2018-08-31T22:23:09.324Z,13.50
2018-08-31T22:25:37.985Z,14.90
2018-08-31T22:28:06.693Z,14.30
2018-08-31T22:30:35.384Z,15.10
2018-08-31T22:33:04.047Z,15.00
2018-08-31T22:35:32.695Z,13.93
2018-08-31T22:38:01.420Z,15.33
2018-08-31T22:40:30.085Z,13.03
2018-08-31T22:42:58.736Z,16.93
2018-08-31T22:45:27.398Z,10.53
2018-08-31T22:47:56.037Z,9.40
2018-08-31T22:50:24.697Z,12.60
2018-08-31T22:52:53.367Z,12.37
2018-08-31T22:55:22.023Z,11.73
2018-08-31T22:57:50.723Z,10.63
2018-08-31T23:00:19.409Z,12.53
2018-08-31T23:02:48.047Z,12.57
2018-08-31T23:05:16.710Z,10.10
2018-08-31T23:07:50.671Z,15.40
2018-08-31T23:10:19.329Z,11.27
2018-08-31T23:12:48.000Z,13.57
2018-08-31T23:15:16.673Z,13.47
2018-08-31T23:17:45.319Z,14.70
2018-08-31T23:20:13.980Z,12.33
2018-08-31T23:22:42.636Z,11.60
2018-08-31T23:25:16.768Z,11.20
2018-08-31T23:27:45.476Z,7.80
2018-08-31T23:30:14.154Z,8.43
2018-08-31T23:32:42.841Z,10.17
2018-08-31T23:35:11.494Z,9.67
2018-08-31T23:37:40.175Z,10.20
2018-08-31T23:40:08.828Z,13.30
2018-08-31T23:42:37.484Z,11.17
2018-08-31T23:45:06.144Z,9.70
2018-08-31T23:47:34.806Z,15.10
2018-08-31T23:50:03.536Z,15.77
2018-08-31T23:52:32.192Z,12.90
2018-08-31T23:55:00.832Z,12.00
2018-08-31T23:57:29.576Z,9.77
2018-08-31T23:59:58.249Z,13.77
